createdAt,value
2023-01-09T00:00:58.472Z,15.20
2023-01-09T00:04:02.149Z,16.23
2023-01-09T00:07:05.403Z,15.77
2023-01-09T00:10:11.873Z,16.30
2023-01-09T00:13:15.234Z,16.20
2023-01-09T00:16:18.480Z,16.95
2023-01-09T00:19:21.593Z,15.57
2023-01-09T00:22:25.652Z,15.80
2023-01-09T00:25:30.432Z,16.00
2023-01-09T00:28:33.812Z,16.55
2023-01-09T00:31:37.081Z,15.50
2023-01-09T00:34:40.450Z,16.70
2023-01-09T00:37:43.811Z,14.73
2023-01-09T00:40:48.515Z,15.88
2023-01-09T00:43:55.249Z,16.85
2023-01-09T00:47:02.083Z,16.98
2023-01-09T00:50:09.392Z,16.25
2023-01-09T00:53:17.553Z,16.20
2023-01-09T00:56:23.292Z,14.07
2023-01-09T00:59:28.231Z,15.52
2023-01-09T01:02:31.479Z,15.00
2023-01-09T01:05:53.204Z,14.98
2023-01-09T01:08:56.760Z,16.52
2023-01-09T01:12:02.202Z,16.35
2023-01-09T01:15:06.671Z,16.65
2023-01-09T01:18:11.088Z,15.75
2023-01-09T01:21:15.203Z,17.23
2023-01-09T01:24:21.391Z,15.77
2023-01-09T01:27:27.660Z,15.00
2023-01-09T01:30:31.816Z,16.23
2023-01-09T01:33:36.902Z,15.80
2023-01-09T01:36:40.191Z,16.75
2023-01-09T01:39:43.467Z,15.20
2023-01-09T01:42:49.732Z,15.55
2023-01-09T01:45:53.090Z,16.08
2023-01-09T01:49:02.350Z,15.82
2023-01-09T01:52:05.617Z,16.02
2023-01-09T01:55:10.511Z,14.90
2023-01-09T01:58:16.515Z,16.05
2023-01-09T02:01:21.104Z,16.30
2023-01-09T02:04:24.595Z,16.77
2023-01-09T02:07:28.171Z,15.77
2023-01-09T02:10:31.787Z,15.50
2023-01-09T02:13:40.682Z,15.32
2023-01-09T02:16:52.314Z,15.82
2023-01-09T02:20:38.495Z,16.33
2023-01-09T02:24:10.958Z,16.15
2023-01-09T02:27:49.951Z,16.23
2023-01-09T02:30:58.432Z,16.20
2023-01-09T02:34:08.452Z,16.23
2023-01-09T02:37:20.912Z,17.08
2023-01-09T02:40:28.275Z,15.40
2023-01-09T02:43:32.788Z,16.75
2023-01-09T02:46:37.550Z,17.70
2023-01-09T02:49:41.791Z,16.73
2023-01-09T02:53:09.193Z,15.40
2023-01-09T02:56:31.151Z,16.17
2023-01-09T02:59:40.657Z,14.68
2023-01-09T03:02:50.265Z,16.05
2023-01-09T03:05:59.391Z,17.00
2023-01-09T03:09:07.277Z,17.10
2023-01-09T03:12:13.631Z,17.92
2023-01-09T03:15:18.991Z,18.95
2023-01-09T03:18:27.956Z,18.95
2023-01-09T03:24:34.872Z,18.58
2023-01-09T03:27:38.021Z,19.30
2023-01-09T03:30:41.211Z,18.42
2023-01-09T03:33:46.308Z,18.00
2023-01-09T03:36:49.481Z,17.90
2023-01-09T03:39:52.633Z,18.73
2023-01-09T03:42:55.822Z,19.00
2023-01-09T03:45:59.417Z,19.17
2023-01-09T03:49:04.099Z,16.40
2023-01-09T03:52:07.292Z,18.00
2023-01-09T03:55:10.718Z,17.77
2023-01-09T03:58:14.215Z,16.50
2023-01-09T04:01:17.548Z,17.48
2023-01-09T04:04:22.273Z,17.20
2023-01-09T04:07:25.492Z,17.38
2023-01-09T04:10:28.903Z,16.23
2023-01-09T04:13:32.118Z,18.23
2023-01-09T04:16:35.410Z,18.40
2023-01-09T04:19:40.233Z,16.92
2023-01-09T04:22:43.528Z,16.83
2023-01-09T04:25:47.995Z,18.05
2023-01-09T04:28:51.155Z,18.80
2023-01-09T04:31:54.333Z,17.63
2023-01-09T04:34:59.153Z,18.08
2023-01-09T04:38:02.317Z,17.85
2023-01-09T04:41:05.585Z,17.27
2023-01-09T04:44:08.841Z,20.40
2023-01-09T04:47:13.954Z,19.63
2023-01-09T04:50:18.947Z,22.10
2023-01-09T04:53:22.073Z,23.40
2023-01-09T04:56:25.474Z,24.85
2023-01-09T04:59:28.679Z,26.90
2023-01-09T05:02:32.158Z,25.40
2023-01-09T05:05:36.842Z,27.92
2023-01-09T05:08:39.982Z,27.58
2023-01-09T05:11:43.154Z,26.48
2023-01-09T05:14:46.353Z,28.85
2023-01-09T05:17:49.519Z,27.30
2023-01-09T05:20:54.155Z,28.40
2023-01-09T05:23:57.314Z,28.65
2023-01-09T05:27:03.002Z,28.92
2023-01-09T05:30:07.283Z,29.27
2023-01-09T05:33:10.597Z,27.45
2023-01-09T05:36:15.401Z,29.55
2023-01-09T05:39:18.521Z,29.33
2023-01-09T05:42:21.654Z,29.30
2023-01-09T05:45:24.863Z,27.73
2023-01-09T05:48:28.102Z,23.45
2023-01-09T05:51:33.234Z,29.30
2023-01-09T05:54:36.432Z,26.92
2023-01-09T05:57:39.707Z,28.20
2023-01-09T06:00:42.846Z,28.05
2023-01-09T06:03:45.953Z,30.58
2023-01-09T06:06:50.554Z,28.88
2023-01-09T06:09:53.675Z,29.23
2023-01-09T06:12:56.832Z,29.65
2023-01-09T06:15:59.961Z,30.02
2023-01-09T06:19:03.346Z,31.40
2023-01-09T06:22:08.232Z,32.42
2023-01-09T06:25:11.547Z,30.65
2023-01-09T06:28:14.752Z,30.75
2023-01-09T06:31:18.030Z,32.35
2023-01-09T06:34:21.234Z,33.22
2023-01-09T06:37:26.113Z,34.10
2023-01-09T06:40:29.316Z,33.72
2023-01-09T06:43:32.639Z,34.38
2023-01-09T06:46:35.793Z,33.80
2023-01-09T06:49:38.957Z,35.70
2023-01-09T06:52:43.760Z,35.13
2023-01-09T06:55:47.196Z,35.80
2023-01-09T06:58:50.308Z,34.08
2023-01-09T07:01:53.732Z,33.13
2023-01-09T07:04:57.123Z,35.75
2023-01-09T07:08:01.802Z,33.38
2023-01-09T07:11:05.104Z,33.65
2023-01-09T07:14:08.522Z,32.65
2023-01-09T07:17:13.898Z,32.20
2023-01-09T07:20:18.483Z,33.97
2023-01-09T07:23:23.185Z,31.80
2023-01-09T07:26:26.320Z,32.53
2023-01-09T07:29:29.752Z,33.30
2023-01-09T07:32:32.952Z,34.92
2023-01-09T07:35:36.283Z,28.30
2023-01-09T07:38:41.005Z,29.65
2023-01-09T07:41:45.109Z,28.45
2023-01-09T07:44:48.193Z,30.52
2023-01-09T07:47:52.703Z,28.80
2023-01-09T07:50:55.836Z,27.27
2023-01-09T07:54:00.728Z,27.10
2023-01-09T07:57:04.133Z,23.75
2023-01-09T08:00:11.283Z,25.88
2023-01-09T08:03:17.135Z,23.10
2023-01-09T08:06:20.355Z,22.63
2023-01-09T08:09:25.037Z,22.58
2023-01-09T08:12:28.230Z,21.95
2023-01-09T08:15:31.514Z,21.65
2023-01-09T08:18:34.879Z,21.20
2023-01-09T08:21:38.127Z,20.90
2023-01-09T08:24:42.859Z,19.55
2023-01-09T08:27:46.398Z,20.15
2023-01-09T08:30:49.554Z,19.83
2023-01-09T08:33:52.722Z,20.20
2023-01-09T08:36:55.874Z,19.58
2023-01-09T08:40:00.632Z,19.38
2023-01-09T08:43:22.404Z,20.70
2023-01-09T08:46:44.842Z,19.13
2023-01-09T08:49:48.045Z,19.42
2023-01-09T08:52:51.233Z,18.08
2023-01-09T08:55:55.904Z,19.23
2023-01-09T08:58:59.271Z,19.60
2023-01-09T09:02:02.714Z,18.30
2023-01-09T09:05:07.034Z,19.75
2023-01-09T09:08:10.232Z,16.55
2023-01-09T09:11:15.154Z,17.17
2023-01-09T09:14:36.875Z,17.48
2023-01-09T09:17:40.721Z,17.65
2023-01-09T09:20:43.799Z,14.93
2023-01-09T09:23:47.021Z,16.48
2023-01-09T09:26:51.676Z,13.52
2023-01-09T09:29:54.993Z,12.15
2023-01-09T09:32:58.283Z,12.20
2023-01-09T09:36:01.540Z,11.20
2023-01-09T09:39:07.584Z,11.07
2023-01-09T09:43:03.914Z,10.50
2023-01-09T09:46:19.805Z,10.68
2023-01-09T09:49:28.474Z,12.00
2023-01-09T09:52:39.950Z,9.13
2023-01-09T09:55:45.506Z,10.05
2023-01-09T09:58:54.836Z,8.10
2023-01-09T10:02:02.815Z,7.13
2023-01-09T10:05:12.733Z,16.20
2023-01-09T10:08:26.274Z,9.20
2023-01-09T10:11:37.675Z,31.70
2023-01-09T10:14:42.325Z,63.08
2023-01-09T10:17:57.640Z,43.15
2023-01-09T10:21:07.525Z,96.30
2023-01-09T10:24:32.654Z,64.72
2023-01-09T10:27:47.534Z,47.95
2023-01-09T10:30:56.909Z,28.48
2023-01-09T10:34:11.549Z,24.05
2023-01-09T10:37:19.725Z,20.40
2023-01-09T10:40:26.267Z,16.50
2023-01-09T10:43:35.313Z,11.43
2023-01-09T10:49:54.615Z,21.98
2023-01-09T10:52:58.541Z,13.82
2023-01-09T10:56:09.193Z,8.13
2023-01-09T10:59:12.384Z,13.02
2023-01-09T11:02:27.209Z,10.90
2023-01-09T11:05:32.803Z,21.25
2023-01-09T11:08:42.280Z,48.40
2023-01-09T11:11:45.818Z,58.80
2023-01-09T11:14:48.863Z,116.85
2023-01-09T11:17:53.491Z,94.50
2023-01-09T11:21:14.181Z,45.78
2023-01-09T11:24:31.685Z,92.38
2023-01-09T11:27:34.782Z,39.40
2023-01-09T11:30:51.425Z,60.88
2023-01-09T11:33:56.014Z,37.60
2023-01-09T11:37:07.039Z,52.72
2023-01-09T11:40:19.503Z,42.70
2023-01-09T11:43:35.782Z,19.02
2023-01-09T11:46:42.162Z,22.45
2023-01-09T11:49:51.358Z,47.33
2023-01-09T11:53:13.891Z,8.40
2023-01-09T11:56:18.034Z,15.20
2023-01-09T11:59:23.416Z,16.17
2023-01-09T12:02:58.279Z,36.40
2023-01-09T12:06:13.514Z,37.25
2023-01-09T12:09:26.107Z,14.95
2023-01-09T12:12:36.337Z,11.55
2023-01-09T12:15:49.459Z,7.43
2023-01-09T12:19:11.624Z,9.07
2023-01-09T12:22:27.622Z,10.63
2023-01-09T12:25:42.504Z,6.53
2023-01-09T12:29:12.317Z,8.73
2023-01-09T12:32:33.153Z,6.50
2023-01-09T12:35:45.015Z,4.22
2023-01-09T12:38:55.669Z,4.97
2023-01-09T12:42:18.187Z,4.80
2023-01-09T12:45:42.495Z,4.15
2023-01-09T12:49:13.596Z,4.93
2023-01-09T12:52:23.636Z,4.55
2023-01-09T12:55:33.744Z,5.03
2023-01-09T12:58:43.793Z,4.65
2023-01-09T13:01:49.126Z,5.20
2023-01-09T13:04:57.337Z,5.50
2023-01-09T13:08:05.572Z,5.43
2023-01-09T13:11:20.278Z,4.55
2023-01-09T13:14:39.694Z,4.20
2023-01-09T13:17:48.234Z,4.28
2023-01-09T13:20:54.206Z,4.30
2023-01-09T13:24:04.449Z,4.32
2023-01-09T13:27:13.794Z,3.90
2023-01-09T13:30:26.524Z,4.00
2023-01-09T13:33:31.567Z,10.80
2023-01-09T13:36:46.267Z,5.18
2023-01-09T13:39:58.060Z,6.05
2023-01-09T13:43:06.477Z,4.20
2023-01-09T13:46:09.877Z,5.38
2023-01-09T13:49:34.514Z,4.38
2023-01-09T13:52:39.074Z,4.70
2023-01-09T13:56:06.005Z,4.72
2023-01-09T13:59:27.232Z,3.92
2023-01-09T14:02:54.634Z,4.32
2023-01-09T14:06:16.617Z,5.53
2023-01-09T14:09:22.095Z,5.95
2023-01-09T14:12:26.733Z,4.95
2023-01-09T14:15:36.844Z,6.80
2023-01-09T14:18:47.594Z,5.95
2023-01-09T14:21:54.733Z,6.38
2023-01-09T14:25:04.643Z,6.30
2023-01-09T14:28:21.277Z,7.40
2023-01-09T14:31:33.117Z,8.10
2023-01-09T14:34:37.797Z,8.77
2023-01-09T14:37:42.595Z,9.60
2023-01-09T14:40:49.427Z,9.63
2023-01-09T14:43:57.594Z,9.48
2023-01-09T14:47:12.686Z,10.68
2023-01-09T14:50:19.713Z,15.75
2023-01-09T14:53:25.076Z,13.93
2023-01-09T14:56:30.474Z,13.15
2023-01-09T14:59:33.635Z,11.18
2023-01-09T15:02:39.905Z,11.65
2023-01-09T15:05:45.093Z,14.40
2023-01-09T15:08:53.589Z,10.60
2023-01-09T15:12:02.685Z,12.98
2023-01-09T15:15:12.794Z,14.70
2023-01-09T15:18:24.637Z,15.80
2023-01-09T15:21:31.586Z,14.70
2023-01-09T15:24:35.478Z,15.20
2023-01-09T15:27:48.552Z,16.08
2023-01-09T15:30:58.583Z,15.70
2023-01-09T15:34:04.829Z,22.92
2023-01-09T15:37:25.193Z,30.60
2023-01-09T15:40:34.396Z,32.35
2023-01-09T15:43:43.336Z,29.38
2023-01-09T15:49:52.867Z,27.20
2023-01-09T15:52:56.853Z,22.55
2023-01-09T15:56:17.105Z,21.65
2023-01-09T15:59:29.842Z,20.98
2023-01-09T16:02:51.695Z,20.10
2023-01-09T16:06:05.957Z,18.40
2023-01-09T16:09:17.789Z,20.85
2023-01-09T16:12:23.963Z,22.40
2023-01-09T16:15:27.783Z,21.05
2023-01-09T16:18:37.676Z,21.02
2023-01-09T16:21:42.319Z,20.58
2023-01-09T16:24:45.387Z,20.10
2023-01-09T16:28:08.833Z,14.93
2023-01-09T16:31:20.972Z,15.25
2023-01-09T16:34:25.016Z,15.98
2023-01-09T16:37:29.793Z,17.77
2023-01-09T16:40:36.415Z,19.55
2023-01-09T16:43:39.592Z,18.95
2023-01-09T16:46:44.087Z,22.13
2023-01-09T16:49:47.191Z,27.13
2023-01-09T16:52:51.951Z,33.22
2023-01-09T16:55:55.472Z,33.95
2023-01-09T16:58:59.434Z,42.25
2023-01-09T17:02:02.566Z,34.80
2023-01-09T17:05:06.622Z,31.17
2023-01-09T17:08:21.960Z,26.50
2023-01-09T17:11:33.235Z,33.88
2023-01-09T17:14:36.353Z,23.38
2023-01-09T17:17:39.537Z,27.23
2023-01-09T17:20:45.390Z,14.35
2023-01-09T17:24:10.376Z,21.42
2023-01-09T17:27:32.242Z,37.30
2023-01-09T17:30:35.363Z,66.85
2023-01-09T17:33:39.576Z,33.33
2023-01-09T17:36:44.896Z,26.65
2023-01-09T17:39:49.455Z,33.78
2023-01-09T17:42:52.593Z,42.30
2023-01-09T17:45:56.796Z,29.23
2023-01-09T17:49:01.039Z,37.17
2023-01-09T17:52:04.283Z,41.28
2023-01-09T17:55:10.022Z,51.10
2023-01-09T17:58:26.592Z,60.55
2023-01-09T18:01:29.816Z,47.95
2023-01-09T18:04:33.092Z,42.00
2023-01-09T18:07:36.212Z,26.73
2023-01-09T18:10:41.192Z,24.65
2023-01-09T18:13:44.878Z,24.30
2023-01-09T18:16:48.040Z,25.00
2023-01-09T18:19:51.435Z,31.95
2023-01-09T18:22:54.453Z,40.05
2023-01-09T18:25:59.072Z,31.88
2023-01-09T18:29:02.324Z,27.35
2023-01-09T18:32:06.023Z,40.95
2023-01-09T18:35:10.112Z,34.00
2023-01-09T18:38:14.372Z,35.78
2023-01-09T18:41:19.792Z,47.17
2023-01-09T18:44:23.071Z,65.00
2023-01-09T18:47:26.143Z,65.45
2023-01-09T18:50:29.422Z,34.67
2023-01-09T18:53:33.004Z,39.75
2023-01-09T18:56:37.813Z,32.28
2023-01-09T18:59:41.279Z,26.85
2023-01-09T19:02:44.393Z,30.60
2023-01-09T19:05:48.273Z,30.35
2023-01-09T19:08:51.440Z,37.30
2023-01-09T19:11:55.931Z,49.15
2023-01-09T19:14:58.969Z,39.38
2023-01-09T19:18:01.948Z,37.22
2023-01-09T19:21:10.250Z,31.38
2023-01-09T19:24:13.350Z,29.52
2023-01-09T19:27:17.849Z,27.65
2023-01-09T19:30:22.141Z,29.42
2023-01-09T19:33:25.791Z,27.90
2023-01-09T19:36:29.073Z,29.23
2023-01-09T19:39:32.681Z,29.15
2023-01-09T19:42:37.209Z,27.30
2023-01-09T19:45:40.389Z,28.92
2023-01-09T19:48:43.612Z,28.27
2023-01-09T19:51:46.750Z,27.08
2023-01-09T19:54:49.792Z,31.20
2023-01-09T19:57:54.429Z,34.17
2023-01-09T20:00:57.486Z,38.40
2023-01-09T20:04:10.310Z,50.00
2023-01-09T20:07:15.143Z,82.60
2023-01-09T20:10:18.394Z,67.93
2023-01-09T20:13:23.072Z,77.18
2023-01-09T20:16:30.514Z,68.13
2023-01-09T20:19:34.264Z,43.47
2023-01-09T20:22:37.394Z,25.13
2023-01-09T20:25:40.653Z,18.75
2023-01-09T20:28:46.074Z,26.70
2023-01-09T20:31:49.325Z,22.13
2023-01-09T20:34:52.555Z,24.15
2023-01-09T20:37:56.205Z,26.67
2023-01-09T20:41:06.233Z,29.17
2023-01-09T20:44:13.215Z,22.40
2023-01-09T20:47:16.473Z,22.55
2023-01-09T20:50:19.755Z,32.35
2023-01-09T20:53:22.835Z,32.60
2023-01-09T20:56:26.686Z,41.75
2023-01-09T20:59:31.353Z,37.80
2023-01-09T21:02:36.032Z,32.67
2023-01-09T21:05:41.576Z,26.60
2023-01-09T21:08:45.477Z,25.63
2023-01-09T21:11:48.653Z,25.70
2023-01-09T21:14:53.509Z,26.45
2023-01-09T21:17:56.795Z,25.27
2023-01-09T21:21:04.274Z,25.75
2023-01-09T21:24:08.527Z,25.98
2023-01-09T21:27:11.719Z,24.73
2023-01-09T21:30:16.633Z,23.27
2023-01-09T21:33:23.517Z,20.90
2023-01-09T21:36:27.389Z,21.23
2023-01-09T21:39:30.716Z,20.92
2023-01-09T21:42:52.313Z,19.63
2023-01-09T21:46:21.037Z,20.15
2023-01-09T21:49:25.992Z,19.98
2023-01-09T21:52:29.192Z,18.55
2023-01-09T21:55:32.522Z,17.65
2023-01-09T21:58:36.056Z,19.75
2023-01-09T22:01:41.089Z,17.05
2023-01-09T22:04:49.198Z,16.35
2023-01-09T22:07:52.719Z,15.25
2023-01-09T22:10:56.671Z,14.77
2023-01-09T22:14:00.714Z,14.48
2023-01-09T22:17:05.441Z,15.73
2023-01-09T22:20:10.862Z,16.98
2023-01-09T22:23:13.993Z,16.60
2023-01-09T22:26:18.119Z,18.83
2023-01-09T22:29:22.192Z,21.52
2023-01-09T22:32:26.872Z,23.25
2023-01-09T22:35:29.926Z,22.70
2023-01-09T22:38:33.074Z,21.40
2023-01-09T22:41:36.212Z,20.48
2023-01-09T22:44:39.472Z,23.77
2023-01-09T22:47:44.153Z,23.83
2023-01-09T22:50:47.232Z,25.25
2023-01-09T22:53:51.191Z,25.27
2023-01-09T22:56:54.527Z,25.63
2023-01-09T22:59:57.794Z,25.33
2023-01-09T23:03:02.497Z,24.02
2023-01-09T23:06:07.673Z,24.13
2023-01-09T23:09:11.369Z,21.52
2023-01-09T23:12:14.556Z,26.20
2023-01-09T23:15:18.235Z,23.35
2023-01-09T23:18:23.061Z,21.83
2023-01-09T23:21:26.200Z,25.13
2023-01-09T23:24:30.414Z,24.92
2023-01-09T23:27:33.723Z,24.90
2023-01-09T23:30:36.893Z,23.35
2023-01-09T23:33:41.599Z,21.55
2023-01-09T23:36:44.995Z,21.85
2023-01-09T23:39:48.275Z,22.08
2023-01-09T23:43:09.515Z,22.08
2023-01-09T23:46:12.917Z,21.90
2023-01-09T23:49:17.757Z,23.10
2023-01-09T23:52:20.998Z,26.45
2023-01-09T23:55:24.279Z,27.80
2023-01-09T23:58:27.562Z,26.48
